sensor_id;sensor_type;location;lat;lon;timestamp;P1;durP1;ratioP1;P2;durP2;ratioP2
22070;SDS011;11200;51.488;6.668;2024-03-23T00:55:36;5.35;;;2.15;;
22070;SDS011;11200;51.488;6.668;2024-03-23T00:58:02;4.97;;;2.20;;
22070;SDS011;11200;51.488;6.668;2024-03-23T01:00:28;3.97;;;2.00;;
22070;SDS011;11200;51.488;6.668;2024-03-23T01:02:54;4.82;;;2.13;;
22070;SDS011;11200;51.488;6.668;2024-03-23T01:05:20;6.25;;;2.08;;
22070;SDS011;11200;51.488;6.668;2024-03-23T01:07:46;3.42;;;1.70;;
22070;SDS011;11200;51.488;6.668;2024-03-23T01:10:12;4.72;;;1.88;;
22070;SDS011;11200;51.488;6.668;2024-03-23T01:12:38;4.28;;;1.95;;
22070;SDS011;11200;51.488;6.668;2024-03-23T01:15:04;3.67;;;1.70;;
22070;SDS011;11200;51.488;6.668;2024-03-23T01:17:30;4.18;;;2.05;;
22070;SDS011;11200;51.488;6.668;2024-03-23T01:19:56;4.18;;;2.08;;
22070;SDS011;11200;51.488;6.668;2024-03-23T01:22:22;5.78;;;2.20;;
22070;SDS011;11200;51.488;6.668;2024-03-23T01:24:48;5.80;;;2.38;;
22070;SDS011;11200;51.488;6.668;2024-03-23T01:27:14;4.40;;;2.05;;
22070;SDS011;11200;51.488;6.668;2024-03-23T01:29:40;4.07;;;1.95;;
22070;SDS011;11200;51.488;6.668;2024-03-23T01:32:06;3.83;;;2.00;;
22070;SDS011;11200;51.488;6.668;2024-03-23T01:34:32;6.15;;;2.20;;
22070;SDS011;11200;51.488;6.668;2024-03-23T01:36:58;4.07;;;1.70;;
22070;SDS011;11200;51.488;6.668;2024-03-23T01:39:24;6.43;;;2.08;;
22070;SDS011;11200;51.488;6.668;2024-03-23T01:41:51;4.35;;;1.83;;
22070;SDS011;11200;51.488;6.668;2024-03-23T01:44:17;4.72;;;1.70;;
22070;SDS011;11200;51.488;6.668;2024-03-23T01:46:43;4.63;;;1.90;;
22070;SDS011;11200;51.488;6.668;2024-03-23T01:49:09;3.92;;;1.77;;
22070;SDS011;11200;51.488;6.668;2024-03-23T01:51:36;3.50;;;1.83;;
22070;SDS011;11200;51.488;6.668;2024-03-23T01:54:02;2.90;;;1.60;;
22070;SDS011;11200;51.488;6.668;2024-03-23T01:56:31;3.47;;;1.90;;
22070;SDS011;11200;51.488;6.668;2024-03-23T01:59:06;4.85;;;2.08;;
22070;SDS011;11200;51.488;6.668;2024-03-23T02:01:33;4.35;;;1.70;;
22070;SDS011;11200;51.488;6.668;2024-03-23T02:04:03;4.18;;;1.73;;
22070;SDS011;11200;51.488;6.668;2024-03-23T02:06:30;2.80;;;1.55;;
22070;SDS011;11200;51.488;6.668;2024-03-23T02:08:56;3.38;;;1.50;;
22070;SDS011;11200;51.488;6.668;2024-03-23T02:11:22;4.63;;;1.55;;
22070;SDS011;11200;51.488;6.668;2024-03-23T02:13:48;2.58;;;1.50;;
22070;SDS011;11200;51.488;6.668;2024-03-23T02:16:14;4.30;;;1.88;;
22070;SDS011;11200;51.488;6.668;2024-03-23T02:18:40;3.72;;;1.80;;
22070;SDS011;11200;51.488;6.668;2024-03-23T02:21:06;2.33;;;1.58;;
22070;SDS011;11200;51.488;6.668;2024-03-23T02:23:32;4.25;;;2.00;;
22070;SDS011;11200;51.488;6.668;2024-03-23T02:25:58;3.53;;;1.95;;
22070;SDS011;11200;51.488;6.668;2024-03-23T02:28:24;3.40;;;1.60;;
22070;SDS011;11200;51.488;6.668;2024-03-23T02:30:50;4.65;;;1.65;;
22070;SDS011;11200;51.488;6.668;2024-03-23T02:33:16;4.65;;;1.50;;
22070;SDS011;11200;51.488;6.668;2024-03-23T02:35:43;3.88;;;1.48;;
22070;SDS011;11200;51.488;6.668;2024-03-23T02:38:09;4.22;;;1.92;;
22070;SDS011;11200;51.488;6.668;2024-03-23T02:40:35;5.13;;;1.90;;
22070;SDS011;11200;51.488;6.668;2024-03-23T02:43:02;5.68;;;1.60;;
22070;SDS011;11200;51.488;6.668;2024-03-23T02:45:28;4.00;;;1.55;;
22070;SDS011;11200;51.488;6.668;2024-03-23T02:47:54;3.88;;;1.52;;
22070;SDS011;11200;51.488;6.668;2024-03-23T02:50:20;3.05;;;1.60;;
22070;SDS011;11200;51.488;6.668;2024-03-23T02:52:47;2.47;;;1.63;;
22070;SDS011;11200;51.488;6.668;2024-03-23T02:55:13;4.30;;;1.85;;
22070;SDS011;11200;51.488;6.668;2024-03-23T02:57:39;2.83;;;1.55;;
22070;SDS011;11200;51.488;6.668;2024-03-23T03:00:05;3.67;;;1.70;;
22070;SDS011;11200;51.488;6.668;2024-03-23T03:02:32;3.95;;;1.73;;
22070;SDS011;11200;51.488;6.668;2024-03-23T03:04:58;3.25;;;1.63;;
22070;SDS011;11200;51.488;6.668;2024-03-23T03:07:24;3.60;;;1.67;;
22070;SDS011;11200;51.488;6.668;2024-03-23T03:09:50;2.75;;;1.50;;
22070;SDS011;11200;51.488;6.668;2024-03-23T03:12:16;2.97;;;1.65;;
22070;SDS011;11200;51.488;6.668;2024-03-23T03:14:42;4.70;;;1.55;;
22070;SDS011;11200;51.488;6.668;2024-03-23T03:17:08;3.90;;;1.40;;
22070;SDS011;11200;51.488;6.668;2024-03-23T03:19:34;3.60;;;1.38;;
22070;SDS011;11200;51.488;6.668;2024-03-23T03:22:00;3.78;;;1.50;;
22070;SDS011;11200;51.488;6.668;2024-03-23T03:24:26;3.35;;;1.40;;
22070;SDS011;11200;51.488;6.668;2024-03-23T03:26:52;2.38;;;1.30;;
22070;SDS011;11200;51.488;6.668;2024-03-23T03:29:18;3.83;;;1.60;;
22070;SDS011;11200;51.488;6.668;2024-03-23T03:31:44;4.10;;;1.65;;
22070;SDS011;11200;51.488;6.668;2024-03-23T03:34:10;2.70;;;1.55;;
22070;SDS011;11200;51.488;6.668;2024-03-23T03:36:36;2.20;;;1.20;;
22070;SDS011;11200;51.488;6.668;2024-03-23T03:39:02;3.03;;;1.60;;
22070;SDS011;11200;51.488;6.668;2024-03-23T03:41:29;3.67;;;1.50;;
22070;SDS011;11200;51.488;6.668;2024-03-23T03:43:55;3.05;;;1.42;;
22070;SDS011;11200;51.488;6.668;2024-03-23T03:46:21;3.10;;;1.50;;
22070;SDS011;11200;51.488;6.668;2024-03-23T03:48:47;3.85;;;1.60;;
22070;SDS011;11200;51.488;6.668;2024-03-23T03:51:13;3.25;;;1.33;;
22070;SDS011;11200;51.488;6.668;2024-03-23T03:53:40;1.90;;;1.25;;
22070;SDS011;11200;51.488;6.668;2024-03-23T03:56:06;3.63;;;1.42;;
22070;SDS011;11200;51.488;6.668;2024-03-23T03:58:32;4.03;;;1.95;;
22070;SDS011;11200;51.488;6.668;2024-03-23T04:00:58;3.55;;;1.30;;
22070;SDS011;11200;51.488;6.668;2024-03-23T04:03:24;2.83;;;1.63;;
22070;SDS011;11200;51.488;6.668;2024-03-23T04:05:56;3.50;;;1.40;;
22070;SDS011;11200;51.488;6.668;2024-03-23T04:08:22;2.97;;;1.38;;
22070;SDS011;11200;51.488;6.668;2024-03-23T04:10:48;3.20;;;1.60;;
22070;SDS011;11200;51.488;6.668;2024-03-23T04:13:14;2.95;;;1.50;;
22070;SDS011;11200;51.488;6.668;2024-03-23T04:15:41;3.65;;;1.58;;
22070;SDS011;11200;51.488;6.668;2024-03-23T04:18:07;4.13;;;1.63;;
22070;SDS011;11200;51.488;6.668;2024-03-23T04:20:33;3.83;;;1.58;;
22070;SDS011;11200;51.488;6.668;2024-03-23T04:22:59;4.03;;;1.45;;
22070;SDS011;11200;51.488;6.668;2024-03-23T04:25:25;3.38;;;1.48;;
22070;SDS011;11200;51.488;6.668;2024-03-23T04:27:51;2.75;;;1.40;;
22070;SDS011;11200;51.488;6.668;2024-03-23T04:30:17;2.22;;;1.48;;
22070;SDS011;11200;51.488;6.668;2024-03-23T04:32:44;3.35;;;1.48;;
22070;SDS011;11200;51.488;6.668;2024-03-23T04:35:10;3.40;;;1.50;;
22070;SDS011;11200;51.488;6.668;2024-03-23T04:37:36;4.15;;;1.75;;
22070;SDS011;11200;51.488;6.668;2024-03-23T04:40:02;4.70;;;1.67;;
22070;SDS011;11200;51.488;6.668;2024-03-23T04:42:29;3.72;;;1.85;;
22070;SDS011;11200;51.488;6.668;2024-03-23T04:44:55;3.53;;;1.73;;
22070;SDS011;11200;51.488;6.668;2024-03-23T04:47:21;3.80;;;1.70;;
22070;SDS011;11200;51.488;6.668;2024-03-23T04:49:47;4.68;;;1.80;;
22070;SDS011;11200;51.488;6.668;2024-03-23T04:52:13;4.88;;;2.30;;
22070;SDS011;11200;51.488;6.668;2024-03-23T04:54:40;4.47;;;1.95;;
22070;SDS011;11200;51.488;6.668;2024-03-23T04:57:06;4.13;;;2.15;;
22070;SDS011;11200;51.488;6.668;2024-03-23T04:59:32;2.83;;;1.58;;
22070;SDS011;11200;51.488;6.668;2024-03-23T05:01:58;4.10;;;1.80;;
22070;SDS011;11200;51.488;6.668;2024-03-23T05:04:28;3.78;;;1.63;;
22070;SDS011;11200;51.488;6.668;2024-03-23T05:06:53;4.15;;;1.85;;
22070;SDS011;11200;51.488;6.668;2024-03-23T05:09:19;3.63;;;2.10;;
22070;SDS011;11200;51.488;6.668;2024-03-23T05:11:46;4.82;;;1.90;;
22070;SDS011;11200;51.488;6.668;2024-03-23T05:14:13;3.85;;;1.90;;
22070;SDS011;11200;51.488;6.668;2024-03-23T05:16:39;4.05;;;2.30;;
22070;SDS011;11200;51.488;6.668;2024-03-23T05:19:05;4.90;;;2.17;;
22070;SDS011;11200;51.488;6.668;2024-03-23T05:21:31;3.03;;;1.90;;
22070;SDS011;11200;51.488;6.668;2024-03-23T05:23:57;4.40;;;1.98;;
22070;SDS011;11200;51.488;6.668;2024-03-23T05:26:23;6.25;;;2.30;;
22070;SDS011;11200;51.488;6.668;2024-03-23T05:28:49;5.22;;;2.10;;
22070;SDS011;11200;51.488;6.668;2024-03-23T05:31:28;3.90;;;1.98;;
22070;SDS011;11200;51.488;6.668;2024-03-23T05:33:55;7.55;;;2.20;;
22070;SDS011;11200;51.488;6.668;2024-03-23T05:36:21;5.15;;;2.20;;
22070;SDS011;11200;51.488;6.668;2024-03-23T05:38:47;5.07;;;2.00;;
22070;SDS011;11200;51.488;6.668;2024-03-23T05:41:13;5.07;;;1.98;;
22070;SDS011;11200;51.488;6.668;2024-03-23T05:43:39;4.57;;;2.10;;
22070;SDS011;11200;51.488;6.668;2024-03-23T05:46:05;5.53;;;1.80;;
22070;SDS011;11200;51.488;6.668;2024-03-23T05:48:31;5.05;;;2.10;;
22070;SDS011;11200;51.488;6.668;2024-03-23T05:50:57;5.15;;;2.30;;
22070;SDS011;11200;51.488;6.668;2024-03-23T05:53:23;4.70;;;1.80;;
22070;SDS011;11200;51.488;6.668;2024-03-23T05:55:50;3.63;;;1.92;;
22070;SDS011;11200;51.488;6.668;2024-03-23T05:58:18;4.80;;;1.85;;
22070;SDS011;11200;51.488;6.668;2024-03-23T06:00:45;4.35;;;2.03;;
22070;SDS011;11200;51.488;6.668;2024-03-23T06:03:11;4.65;;;2.00;;
22070;SDS011;11200;51.488;6.668;2024-03-23T06:05:37;3.58;;;1.92;;
22070;SDS011;11200;51.488;6.668;2024-03-23T06:08:04;3.17;;;2.08;;
22070;SDS011;11200;51.488;6.668;2024-03-23T06:10:30;4.55;;;2.20;;
22070;SDS011;11200;51.488;6.668;2024-03-23T06:12:56;5.43;;;2.10;;
22070;SDS011;11200;51.488;6.668;2024-03-23T06:15:23;5.00;;;2.15;;
22070;SDS011;11200;51.488;6.668;2024-03-23T06:17:49;4.28;;;2.42;;
22070;SDS011;11200;51.488;6.668;2024-03-23T06:20:15;3.72;;;2.28;;
22070;SDS011;11200;51.488;6.668;2024-03-23T06:22:41;5.20;;;2.33;;
22070;SDS011;11200;51.488;6.668;2024-03-23T06:25:07;3.90;;;1.83;;
22070;SDS011;11200;51.488;6.668;2024-03-23T06:27:34;5.18;;;1.90;;
22070;SDS011;11200;51.488;6.668;2024-03-23T06:29:59;3.95;;;2.10;;
22070;SDS011;11200;51.488;6.668;2024-03-23T06:32:25;5.30;;;2.38;;
22070;SDS011;11200;51.488;6.668;2024-03-23T06:34:51;4.50;;;2.15;;
22070;SDS011;11200;51.488;6.668;2024-03-23T06:37:17;4.82;;;1.92;;
22070;SDS011;11200;51.488;6.668;2024-03-23T06:39:45;6.10;;;2.22;;
22070;SDS011;11200;51.488;6.668;2024-03-23T06:42:12;4.22;;;2.13;;
22070;SDS011;11200;51.488;6.668;2024-03-23T06:44:38;4.82;;;2.42;;
22070;SDS011;11200;51.488;6.668;2024-03-23T06:47:04;6.35;;;2.40;;
22070;SDS011;11200;51.488;6.668;2024-03-23T06:49:30;4.72;;;2.47;;
22070;SDS011;11200;51.488;6.668;2024-03-23T06:51:56;5.13;;;2.50;;
22070;SDS011;11200;51.488;6.668;2024-03-23T06:54:24;5.20;;;2.50;;
22070;SDS011;11200;51.488;6.668;2024-03-23T06:56:50;4.88;;;2.30;;
22070;SDS011;11200;51.488;6.668;2024-03-23T06:59:16;6.47;;;3.08;;
22070;SDS011;11200;51.488;6.668;2024-03-23T07:01:42;7.22;;;2.65;;
22070;SDS011;11200;51.488;6.668;2024-03-23T07:04:08;5.68;;;3.15;;
22070;SDS011;11200;51.488;6.668;2024-03-23T07:06:34;5.97;;;2.88;;
22070;SDS011;11200;51.488;6.668;2024-03-23T07:09:07;5.95;;;3.03;;
22070;SDS011;11200;51.488;6.668;2024-03-23T07:11:33;4.40;;;2.67;;
22070;SDS011;11200;51.488;6.668;2024-03-23T07:13:59;5.43;;;3.15;;
22070;SDS011;11200;51.488;6.668;2024-03-23T07:16:26;6.60;;;3.28;;
22070;SDS011;11200;51.488;6.668;2024-03-23T07:18:52;5.85;;;3.15;;
22070;SDS011;11200;51.488;6.668;2024-03-23T07:21:18;6.22;;;2.75;;
22070;SDS011;11200;51.488;6.668;2024-03-23T07:23:44;7.20;;;3.55;;
22070;SDS011;11200;51.488;6.668;2024-03-23T07:26:10;5.90;;;2.95;;
22070;SDS011;11200;51.488;6.668;2024-03-23T07:28:36;7.28;;;3.28;;
22070;SDS011;11200;51.488;6.668;2024-03-23T07:31:06;7.22;;;3.90;;
22070;SDS011;11200;51.488;6.668;2024-03-23T07:33:36;6.55;;;3.33;;
22070;SDS011;11200;51.488;6.668;2024-03-23T07:36:03;7.25;;;3.20;;
22070;SDS011;11200;51.488;6.668;2024-03-23T07:38:29;7.70;;;3.03;;
22070;SDS011;11200;51.488;6.668;2024-03-23T07:43:34;7.22;;;3.42;;
22070;SDS011;11200;51.488;6.668;2024-03-23T07:46:00;9.45;;;3.75;;
22070;SDS011;11200;51.488;6.668;2024-03-23T07:48:26;6.22;;;3.63;;
22070;SDS011;11200;51.488;6.668;2024-03-23T07:50:56;8.38;;;3.60;;
22070;SDS011;11200;51.488;6.668;2024-03-23T07:53:22;7.32;;;3.50;;
22070;SDS011;11200;51.488;6.668;2024-03-23T07:55:58;5.22;;;3.17;;
22070;SDS011;11200;51.488;6.668;2024-03-23T07:58:24;8.77;;;4.20;;
22070;SDS011;11200;51.488;6.668;2024-03-23T08:00:51;5.40;;;3.10;;
22070;SDS011;11200;51.488;6.668;2024-03-23T08:03:17;7.20;;;2.97;;
22070;SDS011;11200;51.488;6.668;2024-03-23T08:05:44;5.75;;;2.95;;
22070;SDS011;11200;51.488;6.668;2024-03-23T08:08:10;9.18;;;3.55;;
22070;SDS011;11200;51.488;6.668;2024-03-23T08:10:37;8.65;;;3.47;;
22070;SDS011;11200;51.488;6.668;2024-03-23T08:13:03;9.60;;;3.50;;
22070;SDS011;11200;51.488;6.668;2024-03-23T08:15:30;6.68;;;3.30;;
22070;SDS011;11200;51.488;6.668;2024-03-23T08:17:58;9.98;;;3.60;;
22070;SDS011;11200;51.488;6.668;2024-03-23T08:20:24;8.57;;;3.60;;
22070;SDS011;11200;51.488;6.668;2024-03-23T08:22:50;5.97;;;2.90;;
22070;SDS011;11200;51.488;6.668;2024-03-23T08:25:16;9.65;;;3.35;;
22070;SDS011;11200;51.488;6.668;2024-03-23T08:27:44;7.63;;;3.30;;
22070;SDS011;11200;51.488;6.668;2024-03-23T08:30:10;7.28;;;3.20;;
22070;SDS011;11200;51.488;6.668;2024-03-23T08:32:36;8.68;;;3.33;;
22070;SDS011;11200;51.488;6.668;2024-03-23T08:35:03;7.65;;;3.30;;
22070;SDS011;11200;51.488;6.668;2024-03-23T08:37:29;7.60;;;2.90;;
22070;SDS011;11200;51.488;6.668;2024-03-23T08:39:55;6.72;;;2.80;;
22070;SDS011;11200;51.488;6.668;2024-03-23T08:42:21;8.07;;;3.20;;
22070;SDS011;11200;51.488;6.668;2024-03-23T08:44:47;5.95;;;2.53;;
22070;SDS011;11200;51.488;6.668;2024-03-23T08:47:16;7.20;;;3.20;;
22070;SDS011;11200;51.488;6.668;2024-03-23T08:49:42;8.60;;;3.42;;
22070;SDS011;11200;51.488;6.668;2024-03-23T08:52:08;6.97;;;2.90;;
22070;SDS011;11200;51.488;6.668;2024-03-23T08:54:34;5.78;;;2.78;;
22070;SDS011;11200;51.488;6.668;2024-03-23T08:57:00;5.95;;;2.60;;
22070;SDS011;11200;51.488;6.668;2024-03-23T08:59:26;5.47;;;2.63;;
22070;SDS011;11200;51.488;6.668;2024-03-23T09:01:52;7.53;;;2.40;;
22070;SDS011;11200;51.488;6.668;2024-03-23T09:04:19;6.50;;;2.80;;
22070;SDS011;11200;51.488;6.668;2024-03-23T09:06:45;6.50;;;2.55;;
22070;SDS011;11200;51.488;6.668;2024-03-23T09:09:11;7.90;;;3.20;;
22070;SDS011;11200;51.488;6.668;2024-03-23T09:11:37;6.97;;;2.75;;
22070;SDS011;11200;51.488;6.668;2024-03-23T09:14:03;7.20;;;2.38;;
22070;SDS011;11200;51.488;6.668;2024-03-23T09:16:29;5.95;;;2.60;;
22070;SDS011;11200;51.488;6.668;2024-03-23T09:18:55;5.20;;;2.53;;
22070;SDS011;11200;51.488;6.668;2024-03-23T09:21:21;5.70;;;2.28;;
22070;SDS011;11200;51.488;6.668;2024-03-23T09:23:47;7.60;;;2.67;;
22070;SDS011;11200;51.488;6.668;2024-03-23T09:26:14;8.57;;;2.92;;
22070;SDS011;11200;51.488;6.668;2024-03-23T09:28:40;4.47;;;2.45;;
22070;SDS011;11200;51.488;6.668;2024-03-23T09:31:06;6.55;;;2.40;;
22070;SDS011;11200;51.488;6.668;2024-03-23T09:33:33;6.78;;;3.05;;
22070;SDS011;11200;51.488;6.668;2024-03-23T09:36:02;8.10;;;3.00;;
22070;SDS011;11200;51.488;6.668;2024-03-23T09:38:28;7.70;;;2.75;;
22070;SDS011;11200;51.488;6.668;2024-03-23T09:40:54;5.70;;;2.60;;
22070;SDS011;11200;51.488;6.668;2024-03-23T09:43:20;5.47;;;2.50;;
22070;SDS011;11200;51.488;6.668;2024-03-23T09:45:46;5.65;;;2.67;;
22070;SDS011;11200;51.488;6.668;2024-03-23T09:48:12;6.10;;;2.47;;
22070;SDS011;11200;51.488;6.668;2024-03-23T09:50:39;9.27;;;2.90;;
22070;SDS011;11200;51.488;6.668;2024-03-23T09:53:06;6.20;;;2.63;;
22070;SDS011;11200;51.488;6.668;2024-03-23T09:55:32;6.57;;;2.20;;
22070;SDS011;11200;51.488;6.668;2024-03-23T09:57:59;5.55;;;2.40;;
22070;SDS011;11200;51.488;6.668;2024-03-23T10:00:25;6.00;;;2.30;;
22070;SDS011;11200;51.488;6.668;2024-03-23T10:02:51;5.95;;;2.30;;
22070;SDS011;11200;51.488;6.668;2024-03-23T10:05:23;6.88;;;2.15;;
22070;SDS011;11200;51.488;6.668;2024-03-23T10:07:50;4.32;;;2.25;;
22070;SDS011;11200;51.488;6.668;2024-03-23T10:10:16;4.88;;;1.98;;
22070;SDS011;11200;51.488;6.668;2024-03-23T10:12:45;5.53;;;1.98;;
22070;SDS011;11200;51.488;6.668;2024-03-23T10:15:24;7.78;;;2.17;;
22070;SDS011;11200;51.488;6.668;2024-03-23T10:17:51;4.35;;;1.90;;
22070;SDS011;11200;51.488;6.668;2024-03-23T10:20:21;7.20;;;2.03;;
22070;SDS011;11200;51.488;6.668;2024-03-23T10:22:50;4.63;;;1.80;;
22070;SDS011;11200;51.488;6.668;2024-03-23T10:25:16;5.00;;;1.80;;
22070;SDS011;11200;51.488;6.668;2024-03-23T10:27:43;6.90;;;2.00;;
22070;SDS011;11200;51.488;6.668;2024-03-23T10:32:35;4.93;;;1.77;;
22070;SDS011;11200;51.488;6.668;2024-03-23T10:35:13;6.32;;;1.98;;
22070;SDS011;11200;51.488;6.668;2024-03-23T10:37:40;3.78;;;1.60;;
22070;SDS011;11200;51.488;6.668;2024-03-23T10:40:06;5.05;;;1.60;;
22070;SDS011;11200;51.488;6.668;2024-03-23T10:42:32;3.90;;;1.20;;
22070;SDS011;11200;51.488;6.668;2024-03-23T10:44:58;3.83;;;1.30;;
22070;SDS011;11200;51.488;6.668;2024-03-23T10:47:25;4.10;;;1.42;;
22070;SDS011;11200;51.488;6.668;2024-03-23T10:49:51;3.38;;;1.20;;
22070;SDS011;11200;51.488;6.668;2024-03-23T10:52:17;2.55;;;1.10;;
22070;SDS011;11200;51.488;6.668;2024-03-23T10:54:43;4.15;;;1.63;;
22070;SDS011;11200;51.488;6.668;2024-03-23T10:57:13;3.03;;;1.52;;
22070;SDS011;11200;51.488;6.668;2024-03-23T10:59:39;2.45;;;1.05;;
22070;SDS011;11200;51.488;6.668;2024-03-23T11:02:06;3.33;;;1.30;;
22070;SDS011;11200;51.488;6.668;2024-03-23T11:04:34;2.97;;;1.05;;
22070;SDS011;11200;51.488;6.668;2024-03-23T11:07:00;3.40;;;1.15;;
22070;SDS011;11200;51.488;6.668;2024-03-23T11:11:55;2.60;;;1.10;;
22070;SDS011;11200;51.488;6.668;2024-03-23T11:14:22;4.43;;;1.20;;
22070;SDS011;11200;51.488;6.668;2024-03-23T11:17:07;3.10;;;1.20;;
22070;SDS011;11200;51.488;6.668;2024-03-23T11:19:34;1.80;;;1.00;;
22070;SDS011;11200;51.488;6.668;2024-03-23T11:22:05;2.03;;;1.10;;
22070;SDS011;11200;51.488;6.668;2024-03-23T11:24:33;2.20;;;1.10;;
22070;SDS011;11200;51.488;6.668;2024-03-23T11:26:59;2.08;;;1.20;;
22070;SDS011;11200;51.488;6.668;2024-03-23T11:29:28;2.33;;;1.10;;
22070;SDS011;11200;51.488;6.668;2024-03-23T11:31:55;3.88;;;1.27;;
22070;SDS011;11200;51.488;6.668;2024-03-23T11:34:21;2.30;;;1.38;;
22070;SDS011;11200;51.488;6.668;2024-03-23T11:36:47;2.08;;;1.17;;
22070;SDS011;11200;51.488;6.668;2024-03-23T11:39:19;3.92;;;1.50;;
22070;SDS011;11200;51.488;6.668;2024-03-23T11:41:52;3.53;;;1.40;;
22070;SDS011;11200;51.488;6.668;2024-03-23T11:44:18;3.05;;;1.20;;
22070;SDS011;11200;51.488;6.668;2024-03-23T11:46:48;2.83;;;1.50;;
22070;SDS011;11200;51.488;6.668;2024-03-23T11:51:47;3.13;;;1.27;;
22070;SDS011;11200;51.488;6.668;2024-03-23T11:54:13;2.85;;;1.40;;
22070;SDS011;11200;51.488;6.668;2024-03-23T11:56:39;4.25;;;1.35;;
22070;SDS011;11200;51.488;6.668;2024-03-23T11:59:08;2.97;;;1.38;;
22070;SDS011;11200;51.488;6.668;2024-03-23T12:01:34;4.85;;;1.40;;
22070;SDS011;11200;51.488;6.668;2024-03-23T12:04:00;3.75;;;1.50;;
22070;SDS011;11200;51.488;6.668;2024-03-23T12:06:27;3.45;;;1.27;;
22070;SDS011;11200;51.488;6.668;2024-03-23T12:08:53;2.85;;;1.30;;
22070;SDS011;11200;51.488;6.668;2024-03-23T12:11:19;4.05;;;1.40;;
22070;SDS011;11200;51.488;6.668;2024-03-23T12:13:47;2.22;;;1.10;;
22070;SDS011;11200;51.488;6.668;2024-03-23T12:16:16;4.25;;;1.45;;
22070;SDS011;11200;51.488;6.668;2024-03-23T12:18:42;5.65;;;1.30;;
22070;SDS011;11200;51.488;6.668;2024-03-23T12:21:08;3.40;;;1.42;;
22070;SDS011;11200;51.488;6.668;2024-03-23T12:23:35;3.10;;;1.20;;
22070;SDS011;11200;51.488;6.668;2024-03-23T12:26:01;2.80;;;1.27;;
22070;SDS011;11200;51.488;6.668;2024-03-23T12:28:27;4.07;;;1.33;;
22070;SDS011;11200;51.488;6.668;2024-03-23T12:30:53;2.42;;;1.15;;
22070;SDS011;11200;51.488;6.668;2024-03-23T12:33:19;3.42;;;1.40;;
22070;SDS011;11200;51.488;6.668;2024-03-23T12:35:46;3.28;;;1.27;;
22070;SDS011;11200;51.488;6.668;2024-03-23T12:38:12;4.00;;;1.55;;
22070;SDS011;11200;51.488;6.668;2024-03-23T12:40:41;3.65;;;1.63;;
22070;SDS011;11200;51.488;6.668;2024-03-23T12:43:07;3.17;;;1.30;;
22070;SDS011;11200;51.488;6.668;2024-03-23T12:45:33;2.85;;;1.30;;
22070;SDS011;11200;51.488;6.668;2024-03-23T12:47:59;3.63;;;1.52;;
22070;SDS011;11200;51.488;6.668;2024-03-23T12:50:25;3.75;;;1.55;;
22070;SDS011;11200;51.488;6.668;2024-03-23T12:52:51;2.88;;;1.10;;
22070;SDS011;11200;51.488;6.668;2024-03-23T12:55:17;2.53;;;1.17;;
22070;SDS011;11200;51.488;6.668;2024-03-23T12:57:43;3.40;;;1.05;;
22070;SDS011;11200;51.488;6.668;2024-03-23T13:00:09;3.00;;;1.25;;
22070;SDS011;11200;51.488;6.668;2024-03-23T13:02:36;3.38;;;1.15;;
22070;SDS011;11200;51.488;6.668;2024-03-23T13:05:03;2.83;;;1.23;;
22070;SDS011;11200;51.488;6.668;2024-03-23T13:07:29;2.05;;;1.27;;
22070;SDS011;11200;51.488;6.668;2024-03-23T13:09:55;2.95;;;1.10;;
22070;SDS011;11200;51.488;6.668;2024-03-23T13:12:22;1.98;;;1.00;;
22070;SDS011;11200;51.488;6.668;2024-03-23T13:14:48;1.85;;;1.02;;
22070;SDS011;11200;51.488;6.668;2024-03-23T13:17:14;2.83;;;1.20;;
22070;SDS011;11200;51.488;6.668;2024-03-23T13:19:40;2.63;;;1.20;;
22070;SDS011;11200;51.488;6.668;2024-03-23T13:22:06;3.22;;;1.23;;
22070;SDS011;11200;51.488;6.668;2024-03-23T13:24:33;1.77;;;1.20;;
22070;SDS011;11200;51.488;6.668;2024-03-23T13:26:59;2.83;;;1.10;;
22070;SDS011;11200;51.488;6.668;2024-03-23T13:29:25;4.25;;;1.25;;
22070;SDS011;11200;51.488;6.668;2024-03-23T13:31:51;4.13;;;1.40;;
22070;SDS011;11200;51.488;6.668;2024-03-23T13:34:18;2.28;;;1.20;;
22070;SDS011;11200;51.488;6.668;2024-03-23T13:36:45;3.05;;;1.10;;
22070;SDS011;11200;51.488;6.668;2024-03-23T13:39:11;3.83;;;1.60;;
22070;SDS011;11200;51.488;6.668;2024-03-23T13:41:40;2.88;;;1.15;;
22070;SDS011;11200;51.488;6.668;2024-03-23T13:44:07;3.25;;;1.25;;
22070;SDS011;11200;51.488;6.668;2024-03-23T13:46:33;4.50;;;1.58;;
22070;SDS011;11200;51.488;6.668;2024-03-23T13:48:59;4.95;;;1.40;;
22070;SDS011;11200;51.488;6.668;2024-03-23T13:51:25;2.35;;;1.10;;
22070;SDS011;11200;51.488;6.668;2024-03-23T13:53:55;3.13;;;1.10;;
22070;SDS011;11200;51.488;6.668;2024-03-23T13:56:22;3.60;;;1.20;;
22070;SDS011;11200;51.488;6.668;2024-03-23T13:58:48;3.88;;;1.20;;
22070;SDS011;11200;51.488;6.668;2024-03-23T14:01:14;1.77;;;0.95;;
22070;SDS011;11200;51.488;6.668;2024-03-23T14:03:40;2.17;;;0.93;;
22070;SDS011;11200;51.488;6.668;2024-03-23T14:06:07;2.13;;;0.90;;
22070;SDS011;11200;51.488;6.668;2024-03-23T14:08:33;1.80;;;1.00;;
22070;SDS011;11200;51.488;6.668;2024-03-23T14:11:01;3.22;;;1.35;;
22070;SDS011;11200;51.488;6.668;2024-03-23T14:13:27;2.40;;;1.10;;
22070;SDS011;11200;51.488;6.668;2024-03-23T14:15:53;1.55;;;1.00;;
22070;SDS011;11200;51.488;6.668;2024-03-23T14:18:19;4.22;;;0.90;;
22070;SDS011;11200;51.488;6.668;2024-03-23T14:20:47;2.85;;;1.00;;
22070;SDS011;11200;51.488;6.668;2024-03-23T14:23:13;2.58;;;1.20;;
22070;SDS011;11200;51.488;6.668;2024-03-23T14:25:39;3.15;;;0.98;;
22070;SDS011;11200;51.488;6.668;2024-03-23T14:28:05;4.10;;;1.20;;
22070;SDS011;11200;51.488;6.668;2024-03-23T14:30:33;3.45;;;1.20;;
22070;SDS011;11200;51.488;6.668;2024-03-23T14:32:59;2.80;;;0.80;;
22070;SDS011;11200;51.488;6.668;2024-03-23T14:35:25;1.75;;;0.80;;
22070;SDS011;11200;51.488;6.668;2024-03-23T14:37:51;3.45;;;1.13;;
22070;SDS011;11200;51.488;6.668;2024-03-23T14:40:18;2.95;;;1.27;;
22070;SDS011;11200;51.488;6.668;2024-03-23T14:42:44;2.53;;;0.95;;
22070;SDS011;11200;51.488;6.668;2024-03-23T14:45:10;2.78;;;1.10;;
22070;SDS011;11200;51.488;6.668;2024-03-23T14:47:36;3.13;;;1.00;;
22070;SDS011;11200;51.488;6.668;2024-03-23T14:50:04;1.85;;;0.90;;
22070;SDS011;11200;51.488;6.668;2024-03-23T14:52:33;2.55;;;1.10;;
22070;SDS011;11200;51.488;6.668;2024-03-23T14:54:59;2.30;;;1.10;;
22070;SDS011;11200;51.488;6.668;2024-03-23T14:57:25;1.58;;;0.70;;
22070;SDS011;11200;51.488;6.668;2024-03-23T14:59:54;1.65;;;0.80;;
22070;SDS011;11200;51.488;6.668;2024-03-23T15:02:20;2.53;;;1.05;;
22070;SDS011;11200;51.488;6.668;2024-03-23T15:04:46;2.10;;;0.80;;
22070;SDS011;11200;51.488;6.668;2024-03-23T15:07:12;2.40;;;1.10;;
22070;SDS011;11200;51.488;6.668;2024-03-23T15:09:38;2.92;;;1.17;;
22070;SDS011;11200;51.488;6.668;2024-03-23T15:12:04;2.92;;;1.40;;
22070;SDS011;11200;51.488;6.668;2024-03-23T15:14:31;2.28;;;1.08;;
22070;SDS011;11200;51.488;6.668;2024-03-23T15:16:56;1.77;;;1.13;;
22070;SDS011;11200;51.488;6.668;2024-03-23T15:19:22;1.77;;;0.90;;
22070;SDS011;11200;51.488;6.668;2024-03-23T15:21:48;2.88;;;1.00;;
22070;SDS011;11200;51.488;6.668;2024-03-23T15:24:14;3.30;;;1.05;;
22070;SDS011;11200;51.488;6.668;2024-03-23T15:26:40;2.28;;;1.10;;
22070;SDS011;11200;51.488;6.668;2024-03-23T15:29:07;2.53;;;1.00;;
22070;SDS011;11200;51.488;6.668;2024-03-23T15:31:37;2.70;;;1.08;;
22070;SDS011;11200;51.488;6.668;2024-03-23T15:34:03;2.55;;;1.00;;
22070;SDS011;11200;51.488;6.668;2024-03-23T15:36:29;3.45;;;1.17;;
22070;SDS011;11200;51.488;6.668;2024-03-23T15:38:55;2.47;;;1.00;;
22070;SDS011;11200;51.488;6.668;2024-03-23T15:41:24;1.98;;;1.15;;
22070;SDS011;11200;51.488;6.668;2024-03-23T15:43:50;2.28;;;1.20;;
22070;SDS011;11200;51.488;6.668;2024-03-23T15:46:16;2.88;;;1.02;;
22070;SDS011;11200;51.488;6.668;2024-03-23T15:48:44;2.55;;;1.10;;